createdAt,value
2022-12-24T00:02:25.301Z,10.30
2022-12-24T00:04:55.653Z,10.33
2022-12-24T00:07:26.803Z,10.33
2022-12-24T00:09:53.101Z,10.28
2022-12-24T00:12:19.413Z,10.31
2022-12-24T00:14:47.012Z,10.28
2022-12-24T00:17:13.447Z,10.27
2022-12-24T00:19:39.832Z,10.29
2022-12-24T00:22:06.160Z,10.29
2022-12-24T00:24:32.475Z,10.39
2022-12-24T00:26:58.856Z,10.46
2022-12-24T00:29:25.319Z,10.36
2022-12-24T00:31:52.945Z,10.37
2022-12-24T00:34:19.272Z,10.27
2022-12-24T00:36:45.569Z,10.25
2022-12-24T00:39:11.949Z,10.21
2022-12-24T00:41:38.243Z,10.26
2022-12-24T00:44:05.693Z,10.23
2022-12-24T00:46:33.018Z,10.19
2022-12-24T00:49:01.436Z,10.32
2022-12-24T00:51:28.034Z,10.38
2022-12-24T00:53:54.741Z,10.39
2022-12-24T00:56:21.241Z,10.35
2022-12-24T00:58:47.662Z,10.28
2022-12-24T01:01:14.238Z,10.36
2022-12-24T01:03:40.762Z,10.24
2022-12-24T01:06:09.432Z,10.29
2022-12-24T01:08:36.394Z,10.26
2022-12-24T01:11:03.488Z,10.13
2022-12-24T01:13:29.828Z,10.13
2022-12-24T01:15:56.234Z,10.20
2022-12-24T01:18:22.835Z,10.15
2022-12-24T01:20:55.046Z,10.13
2022-12-24T01:23:22.745Z,10.00
2022-12-24T01:25:49.081Z,10.03
2022-12-24T01:28:15.490Z,9.95
2022-12-24T01:30:42.332Z,9.92
2022-12-24T01:33:08.698Z,9.93
2022-12-24T01:35:35.061Z,9.91
2022-12-24T01:38:01.388Z,9.86
2022-12-24T01:40:29.128Z,9.90
2022-12-24T01:42:55.439Z,9.85
2022-12-24T01:45:38.111Z,9.79
2022-12-24T01:48:05.111Z,9.79
2022-12-24T01:50:31.509Z,9.80
2022-12-24T01:52:57.974Z,9.82
2022-12-24T01:55:25.863Z,9.81
2022-12-24T01:57:56.340Z,9.76
2022-12-24T02:00:22.685Z,9.85
2022-12-24T02:02:52.094Z,9.88
2022-12-24T02:05:22.452Z,9.83
2022-12-24T02:07:49.255Z,9.90
2022-12-24T02:10:16.149Z,9.94
2022-12-24T02:12:43.815Z,9.96
2022-12-24T02:15:12.776Z,10.04
2022-12-24T02:17:44.178Z,10.08
2022-12-24T02:20:29.276Z,10.10
2022-12-24T02:23:19.803Z,10.23
2022-12-24T02:25:58.387Z,10.29
2022-12-24T02:28:33.920Z,10.37
2022-12-24T02:31:03.957Z,10.38
2022-12-24T02:33:33.054Z,10.42
2022-12-24T02:36:04.591Z,10.41
2022-12-24T02:38:32.723Z,10.37
2022-12-24T02:41:00.922Z,10.37
2022-12-24T02:43:29.128Z,10.36
2022-12-24T02:45:59.554Z,10.33
2022-12-24T02:48:28.663Z,10.33
2022-12-24T02:50:55.735Z,10.29
2022-12-24T02:53:22.052Z,10.27
2022-12-24T02:55:53.979Z,10.34
2022-12-24T02:58:28.106Z,10.33
2022-12-24T03:00:59.074Z,10.35
2022-12-24T03:03:36.087Z,10.38
2022-12-24T03:06:08.173Z,10.46
2022-12-24T03:08:42.308Z,10.39
2022-12-24T03:11:10.408Z,10.37
2022-12-24T03:13:37.012Z,10.39
2022-12-24T03:16:04.557Z,10.37
2022-12-24T03:18:32.681Z,10.36
2022-12-24T03:21:01.962Z,10.50
2022-12-24T03:23:28.339Z,10.42
2022-12-24T03:25:54.875Z,10.61
2022-12-24T03:28:24.137Z,10.49
2022-12-24T03:30:50.519Z,10.42
2022-12-24T03:33:16.877Z,10.37
2022-12-24T03:35:44.595Z,10.44
2022-12-24T03:38:10.948Z,10.45
2022-12-24T03:40:37.244Z,10.45
2022-12-24T03:43:03.600Z,10.38
2022-12-24T03:45:30.177Z,10.34
2022-12-24T03:47:56.553Z,10.39
2022-12-24T03:50:22.901Z,10.43
2022-12-24T03:52:50.658Z,10.40
2022-12-24T03:55:17.089Z,10.40
2022-12-24T03:57:43.402Z,10.33
2022-12-24T04:00:10.389Z,10.29
2022-12-24T04:02:36.840Z,10.26
2022-12-24T04:05:03.462Z,10.24
2022-12-24T04:07:29.786Z,10.20
2022-12-24T04:09:57.484Z,10.22
2022-12-24T04:12:23.817Z,10.25
2022-12-24T04:14:50.304Z,10.22
2022-12-24T04:17:17.135Z,10.18
2022-12-24T04:19:43.455Z,10.16
2022-12-24T04:22:09.728Z,10.17
2022-12-24T04:24:36.070Z,10.19
2022-12-24T04:27:03.707Z,10.14
2022-12-24T04:29:30.019Z,10.15
2022-12-24T04:31:56.726Z,10.17
2022-12-24T04:34:23.055Z,10.16
2022-12-24T04:36:49.352Z,10.18
2022-12-24T04:39:15.669Z,10.23
2022-12-24T04:41:42.024Z,10.20
2022-12-24T04:44:09.726Z,10.20
2022-12-24T04:46:36.105Z,10.15
2022-12-24T04:49:02.461Z,10.17
2022-12-24T04:51:29.019Z,10.19
2022-12-24T04:53:55.950Z,10.17
2022-12-24T04:56:23.659Z,10.26
2022-12-24T04:58:50.282Z,10.29
2022-12-24T05:01:19.085Z,10.32
2022-12-24T05:03:45.480Z,10.32
2022-12-24T05:06:13.322Z,10.35
2022-12-24T05:08:40.109Z,10.32
2022-12-24T05:11:07.011Z,10.31
2022-12-24T05:13:40.752Z,10.31
2022-12-24T05:16:13.054Z,10.30
2022-12-24T05:18:41.045Z,10.25
2022-12-24T05:21:08.361Z,10.28
2022-12-24T05:23:34.656Z,10.23
2022-12-24T05:26:00.964Z,10.12
2022-12-24T05:28:27.307Z,10.16
2022-12-24T05:30:53.675Z,10.09
2022-12-24T05:33:20.003Z,10.08
2022-12-24T05:35:47.732Z,10.13
2022-12-24T05:38:14.055Z,10.14
2022-12-24T05:40:40.371Z,10.09
2022-12-24T05:43:06.679Z,10.08
2022-12-24T05:45:33.001Z,10.13
2022-12-24T05:47:59.388Z,10.07
2022-12-24T05:50:25.745Z,10.02
2022-12-24T05:52:53.427Z,10.04
2022-12-24T05:55:19.768Z,9.98
2022-12-24T05:57:46.104Z,10.03
2022-12-24T06:00:12.761Z,9.99
2022-12-24T06:02:39.160Z,9.98
2022-12-24T06:05:05.827Z,10.01
2022-12-24T06:07:32.293Z,9.94
2022-12-24T06:09:59.986Z,9.93
2022-12-24T06:12:26.331Z,9.93
2022-12-24T06:14:52.629Z,9.89
2022-12-24T06:17:18.921Z,9.86
2022-12-24T06:19:45.199Z,9.82
2022-12-24T06:22:11.549Z,9.86
2022-12-24T06:24:37.878Z,9.79
2022-12-24T06:27:05.532Z,9.83
2022-12-24T06:29:31.953Z,9.84
2022-12-24T06:31:58.424Z,9.82
2022-12-24T06:34:24.821Z,9.85
2022-12-24T06:36:51.142Z,9.78
2022-12-24T06:39:17.446Z,9.84
2022-12-24T06:41:43.760Z,9.78
2022-12-24T06:44:11.463Z,9.72
2022-12-24T06:46:37.872Z,9.80
2022-12-24T06:49:04.238Z,9.80
2022-12-24T06:51:30.584Z,9.83
2022-12-24T06:53:56.933Z,9.80
2022-12-24T06:56:23.219Z,9.81
2022-12-24T06:58:49.558Z,9.79
2022-12-24T07:01:18.593Z,9.77
2022-12-24T07:03:45.191Z,9.92
2022-12-24T07:06:15.149Z,9.91
2022-12-24T07:08:41.442Z,10.00
2022-12-24T07:11:07.740Z,10.04
2022-12-24T07:13:34.089Z,10.00
2022-12-24T07:16:01.213Z,10.01
2022-12-24T07:18:29.370Z,9.92
2022-12-24T07:20:55.721Z,9.92
2022-12-24T07:23:22.156Z,9.84
2022-12-24T07:25:48.481Z,9.83
2022-12-24T07:28:14.915Z,9.87
2022-12-24T07:30:41.236Z,9.91
2022-12-24T07:33:07.554Z,9.91
2022-12-24T07:35:35.251Z,9.96
2022-12-24T07:38:01.945Z,9.96
2022-12-24T07:40:28.310Z,10.01
2022-12-24T07:42:54.648Z,10.06
2022-12-24T07:45:20.958Z,10.03
2022-12-24T07:47:47.253Z,10.09
2022-12-24T07:50:13.561Z,10.11
2022-12-24T07:52:41.219Z,10.06
2022-12-24T07:55:07.803Z,10.09
2022-12-24T07:57:34.129Z,10.04
2022-12-24T08:00:00.470Z,10.07
2022-12-24T08:02:26.889Z,10.07
2022-12-24T08:04:53.298Z,10.03
2022-12-24T08:07:19.611Z,10.03
2022-12-24T08:09:47.259Z,10.02
2022-12-24T08:12:13.545Z,10.11
2022-12-24T08:14:39.860Z,10.11
2022-12-24T08:17:06.288Z,10.13
2022-12-24T08:19:32.607Z,10.15
2022-12-24T08:21:58.928Z,10.19
2022-12-24T08:24:25.486Z,10.27
2022-12-24T08:26:53.199Z,10.25
2022-12-24T08:29:19.515Z,10.25
2022-12-24T08:31:45.866Z,10.26
2022-12-24T08:34:12.306Z,10.28
2022-12-24T08:36:38.608Z,10.27
2022-12-24T08:39:05.280Z,10.32
2022-12-24T08:41:31.739Z,10.37
2022-12-24T08:43:59.428Z,10.37
2022-12-24T08:46:25.984Z,10.38
2022-12-24T08:48:52.530Z,10.45
2022-12-24T08:51:18.837Z,10.39
2022-12-24T08:53:45.262Z,10.41
2022-12-24T08:56:12.012Z,10.39
2022-12-24T08:58:38.558Z,10.38
2022-12-24T09:01:12.421Z,10.39
2022-12-24T09:03:38.891Z,10.39
2022-12-24T09:06:05.698Z,10.36
2022-12-24T09:08:32.148Z,10.35
2022-12-24T09:11:02.128Z,10.36
2022-12-24T09:13:28.566Z,10.39
2022-12-24T09:15:55.767Z,10.40
2022-12-24T09:18:23.541Z,10.50
2022-12-24T09:20:53.908Z,10.47
2022-12-24T09:23:23.252Z,10.43
2022-12-24T09:25:49.578Z,10.45
2022-12-24T09:28:15.869Z,10.52
2022-12-24T09:30:42.160Z,10.50
2022-12-24T09:33:08.473Z,10.54
2022-12-24T09:35:37.512Z,10.57
2022-12-24T09:38:03.888Z,10.63
2022-12-24T09:40:33.606Z,10.65
2022-12-24T09:43:00.345Z,10.66
2022-12-24T09:45:29.056Z,10.73
2022-12-24T09:47:57.599Z,10.74
2022-12-24T09:50:31.228Z,10.78
2022-12-24T09:53:01.128Z,10.73
2022-12-24T09:55:29.836Z,10.77
2022-12-24T09:57:57.961Z,10.78
2022-12-24T10:00:27.492Z,10.74
2022-12-24T10:02:53.941Z,10.63
2022-12-24T10:05:26.739Z,10.72
2022-12-24T10:07:58.886Z,10.71
2022-12-24T10:10:31.161Z,10.70
2022-12-24T10:13:02.171Z,10.65
2022-12-24T10:15:30.307Z,10.64
2022-12-24T10:18:06.413Z,10.64
2022-12-24T10:20:36.953Z,10.73
2022-12-24T10:23:07.482Z,10.70
2022-12-24T10:25:38.380Z,10.69
2022-12-24T10:28:12.484Z,10.66
2022-12-24T10:30:39.028Z,10.65
2022-12-24T10:33:11.782Z,10.62
2022-12-24T10:35:44.016Z,10.56
2022-12-24T10:38:10.567Z,10.55
2022-12-24T10:40:41.015Z,10.51
2022-12-24T10:43:11.680Z,10.53
2022-12-24T10:45:41.553Z,10.58
2022-12-24T10:48:11.792Z,10.64
2022-12-24T10:50:40.975Z,10.70
2022-12-24T10:53:16.202Z,10.80
2022-12-24T10:55:43.884Z,10.83
2022-12-24T10:58:13.788Z,10.94
2022-12-24T11:00:40.680Z,10.91
2022-12-24T11:03:19.827Z,10.95
2022-12-24T11:05:46.261Z,11.02
2022-12-24T11:08:15.741Z,11.08
2022-12-24T11:10:44.456Z,11.17
2022-12-24T11:13:39.368Z,11.21
2022-12-24T11:16:07.471Z,11.32
2022-12-24T11:18:35.311Z,11.41
2022-12-24T11:21:02.943Z,11.50
2022-12-24T11:23:29.498Z,11.54
2022-12-24T11:25:56.978Z,11.62
2022-12-24T11:28:25.816Z,11.59
2022-12-24T11:30:56.209Z,11.52
2022-12-24T11:33:22.562Z,11.47
2022-12-24T11:35:51.655Z,11.49
2022-12-24T11:38:19.622Z,11.48
2022-12-24T11:40:47.987Z,11.46
2022-12-24T11:43:15.903Z,11.51
2022-12-24T11:45:49.284Z,11.58
2022-12-24T11:48:26.253Z,11.58
2022-12-24T11:50:56.169Z,11.59
2022-12-24T11:53:25.708Z,11.66
2022-12-24T11:55:53.498Z,11.73
2022-12-24T11:58:25.139Z,11.83
2022-12-24T12:00:58.051Z,11.84
2022-12-24T12:03:29.158Z,11.88
2022-12-24T12:05:55.924Z,11.85
2022-12-24T12:08:22.607Z,11.91
2022-12-24T12:10:49.680Z,11.90
2022-12-24T12:13:17.607Z,11.87
2022-12-24T12:15:47.148Z,11.94
2022-12-24T12:18:15.712Z,12.03
2022-12-24T12:20:43.462Z,11.88
2022-12-24T12:23:13.741Z,11.91
2022-12-24T12:25:43.951Z,11.80
2022-12-24T12:28:15.576Z,11.77
2022-12-24T12:30:43.301Z,11.83
2022-12-24T12:33:16.182Z,11.87
2022-12-24T12:35:44.466Z,11.85
2022-12-24T12:38:11.927Z,11.84
2022-12-24T12:40:48.451Z,11.74
2022-12-24T12:43:23.645Z,11.78
2022-12-24T12:45:53.233Z,11.76
2022-12-24T12:48:32.268Z,11.81
2022-12-24T12:51:04.622Z,11.71
2022-12-24T12:53:37.522Z,11.78
2022-12-24T12:56:08.542Z,12.10
2022-12-24T12:58:37.492Z,12.15
2022-12-24T13:01:08.994Z,12.10
2022-12-24T13:03:44.209Z,12.00
2022-12-24T13:06:26.347Z,11.97
2022-12-24T13:09:03.663Z,11.91
2022-12-24T13:11:39.819Z,11.83
2022-12-24T13:14:31.908Z,11.70
2022-12-24T13:17:13.141Z,11.71
2022-12-24T13:19:46.737Z,11.72
2022-12-24T13:22:18.464Z,11.78
2022-12-24T13:24:51.782Z,11.76
2022-12-24T13:27:20.435Z,11.80
2022-12-24T13:29:52.069Z,11.87
2022-12-24T13:32:37.164Z,11.89
2022-12-24T13:35:04.780Z,11.85
2022-12-24T13:37:34.376Z,11.86
2022-12-24T13:40:02.104Z,11.83
2022-12-24T13:42:48.064Z,11.87
2022-12-24T13:45:47.582Z,11.77
2022-12-24T13:48:27.473Z,11.72
2022-12-24T13:50:54.714Z,11.80
2022-12-24T13:53:23.338Z,11.71
2022-12-24T13:55:51.563Z,11.67
2022-12-24T13:58:18.862Z,11.63
2022-12-24T14:00:51.982Z,11.61
2022-12-24T14:03:22.517Z,11.63
2022-12-24T14:05:51.004Z,11.65
2022-12-24T14:08:26.017Z,11.62
2022-12-24T14:11:00.159Z,11.56
2022-12-24T14:13:45.429Z,11.48
2022-12-24T14:16:13.076Z,11.49
2022-12-24T14:18:40.442Z,11.37
2022-12-24T14:21:08.143Z,11.41
2022-12-24T14:23:43.669Z,11.28
2022-12-24T14:26:13.905Z,11.26
2022-12-24T14:28:42.938Z,11.16
2022-12-24T14:31:13.741Z,11.18
2022-12-24T14:33:40.053Z,11.11
2022-12-24T14:36:06.887Z,11.04
2022-12-24T14:38:33.456Z,10.97
2022-12-24T14:41:04.184Z,10.88
2022-12-24T14:43:37.480Z,10.79
2022-12-24T14:46:07.170Z,10.71
2022-12-24T14:48:38.964Z,10.72
2022-12-24T14:51:09.530Z,10.64
2022-12-24T14:53:45.143Z,10.60
2022-12-24T14:56:14.016Z,10.55
2022-12-24T14:58:42.876Z,10.50
2022-12-24T15:01:19.005Z,10.43
2022-12-24T15:03:45.485Z,10.38
2022-12-24T15:06:13.079Z,10.33
2022-12-24T15:08:40.361Z,10.30
2022-12-24T15:11:07.957Z,10.25
2022-12-24T15:13:36.929Z,10.20
2022-12-24T15:16:05.487Z,10.15
2022-12-24T15:18:35.385Z,10.07
2022-12-24T15:21:04.581Z,10.00
2022-12-24T15:23:32.087Z,9.94
2022-12-24T15:26:09.378Z,9.90
2022-12-24T15:28:36.457Z,9.82
2022-12-24T15:31:11.715Z,9.78
2022-12-24T15:33:38.164Z,9.71
2022-12-24T15:36:05.416Z,9.67
2022-12-24T15:38:32.938Z,9.60
2022-12-24T15:41:00.310Z,9.53
2022-12-24T15:43:27.062Z,9.46
2022-12-24T15:45:53.464Z,9.40
2022-12-24T15:48:24.204Z,9.35
2022-12-24T15:50:52.236Z,9.31
2022-12-24T15:53:22.434Z,9.27
2022-12-24T15:55:59.825Z,9.22
2022-12-24T15:58:27.126Z,9.17
2022-12-24T16:01:00.312Z,9.11
2022-12-24T16:03:28.180Z,9.07
2022-12-24T16:05:58.790Z,9.00
2022-12-24T16:08:26.128Z,8.95
2022-12-24T16:10:53.965Z,8.90
2022-12-24T16:13:22.309Z,8.84
2022-12-24T16:15:50.926Z,8.79
2022-12-24T16:18:19.577Z,8.75
2022-12-24T16:20:48.686Z,8.72
2022-12-24T16:23:17.589Z,8.70
2022-12-24T16:25:43.991Z,8.68
2022-12-24T16:28:14.052Z,8.65
2022-12-24T16:30:44.041Z,8.66
2022-12-24T16:33:14.220Z,8.63
2022-12-24T16:35:40.650Z,8.60
2022-12-24T16:38:08.377Z,8.56
2022-12-24T16:40:34.715Z,8.55
2022-12-24T16:43:01.058Z,8.54
2022-12-24T16:45:28.625Z,8.51
2022-12-24T16:47:56.560Z,8.52
2022-12-24T16:50:22.924Z,8.53
2022-12-24T16:52:49.247Z,8.54
2022-12-24T16:55:16.973Z,8.53
2022-12-24T16:57:43.295Z,8.53
2022-12-24T17:00:14.082Z,8.50
2022-12-24T17:02:40.541Z,8.45
2022-12-24T17:05:07.361Z,8.40
2022-12-24T17:07:37.049Z,8.39
2022-12-24T17:10:08.560Z,8.37
2022-12-24T17:12:36.342Z,8.33
2022-12-24T17:15:02.681Z,8.28
2022-12-24T17:17:29.822Z,8.24
2022-12-24T17:19:56.315Z,8.17
2022-12-24T17:22:22.913Z,8.11
2022-12-24T17:24:49.294Z,8.09
2022-12-24T17:27:15.781Z,8.08
2022-12-24T17:29:43.681Z,8.07
2022-12-24T17:32:10.013Z,8.04
2022-12-24T17:34:36.534Z,8.06
2022-12-24T17:37:02.848Z,8.11
2022-12-24T17:39:31.449Z,8.10
2022-12-24T17:41:57.825Z,8.12
2022-12-24T17:44:24.158Z,8.14
2022-12-24T17:46:51.970Z,8.16
2022-12-24T17:49:18.492Z,8.19
2022-12-24T17:51:45.962Z,8.23
2022-12-24T17:54:12.511Z,8.29
2022-12-24T17:56:38.882Z,8.35
2022-12-24T17:59:05.232Z,8.41
2022-12-24T18:01:32.046Z,8.46
2022-12-24T18:04:00.346Z,8.51
2022-12-24T18:06:27.266Z,8.54
2022-12-24T18:08:53.909Z,8.56
2022-12-24T18:11:21.764Z,8.60
2022-12-24T18:13:48.615Z,8.62
2022-12-24T18:16:16.003Z,8.64
2022-12-24T18:18:42.419Z,8.64
2022-12-24T18:21:10.177Z,8.67
2022-12-24T18:23:36.513Z,8.67
2022-12-24T18:26:03.599Z,8.68
2022-12-24T18:28:29.963Z,8.66
2022-12-24T18:30:57.325Z,8.62
2022-12-24T18:33:23.657Z,8.56
2022-12-24T18:35:49.984Z,8.51
2022-12-24T18:38:17.682Z,8.45
2022-12-24T18:40:44.151Z,8.40
2022-12-24T18:43:10.514Z,8.35
2022-12-24T18:45:39.749Z,8.32
2022-12-24T18:48:06.190Z,8.31
2022-12-24T18:50:32.547Z,8.30
2022-12-24T18:52:58.870Z,8.25
2022-12-24T18:55:26.566Z,8.25
2022-12-24T18:57:52.917Z,8.26
2022-12-24T19:00:19.656Z,8.29
2022-12-24T19:02:46.076Z,8.31
2022-12-24T19:05:12.460Z,8.34
2022-12-24T19:07:38.774Z,8.37
2022-12-24T19:10:05.625Z,8.40
2022-12-24T19:12:33.304Z,8.44
2022-12-24T19:14:59.641Z,8.49
2022-12-24T19:17:25.974Z,8.52
2022-12-24T19:19:52.299Z,8.55
2022-12-24T19:22:18.636Z,8.58
2022-12-24T19:24:45.085Z,8.59
2022-12-24T19:27:11.359Z,8.61
2022-12-24T19:29:41.546Z,8.62
2022-12-24T19:32:07.897Z,8.63
2022-12-24T19:34:34.281Z,8.64
2022-12-24T19:37:00.676Z,8.65
2022-12-24T19:39:31.953Z,8.66
2022-12-24T19:41:58.834Z,8.66
2022-12-24T19:44:25.148Z,8.67
2022-12-24T19:46:52.853Z,8.67
2022-12-24T19:49:19.183Z,8.67
2022-12-24T19:51:45.602Z,8.66
2022-12-24T19:54:18.442Z,8.65
2022-12-24T19:56:45.458Z,8.63
2022-12-24T19:59:11.958Z,8.62
2022-12-24T20:01:38.397Z,8.61
2022-12-24T20:04:06.332Z,8.58
2022-12-24T20:06:33.631Z,8.56
2022-12-24T20:09:00.166Z,8.55
2022-12-24T20:11:26.852Z,8.55
2022-12-24T20:13:55.557Z,8.55
2022-12-24T20:16:21.912Z,8.54
2022-12-24T20:18:50.480Z,8.54
2022-12-24T20:21:18.139Z,8.53
2022-12-24T20:23:44.477Z,8.53
2022-12-24T20:26:11.961Z,8.53
2022-12-24T20:28:38.427Z,8.53
2022-12-24T20:31:09.162Z,8.53
2022-12-24T20:33:35.471Z,8.51
2022-12-24T20:36:01.935Z,8.50
2022-12-24T20:38:29.601Z,8.50
2022-12-24T20:40:56.788Z,8.48
2022-12-24T20:43:24.585Z,8.48
2022-12-24T20:45:51.270Z,8.48
2022-12-24T20:48:17.699Z,8.48
2022-12-24T20:50:44.029Z,8.48
2022-12-24T20:53:10.443Z,8.47
2022-12-24T20:55:38.096Z,8.46
2022-12-24T20:58:04.518Z,8.47
2022-12-24T21:00:30.865Z,8.46
2022-12-24T21:02:57.328Z,8.44
2022-12-24T21:05:23.752Z,8.44
2022-12-24T21:07:50.133Z,8.43
2022-12-24T21:10:16.509Z,8.42
2022-12-24T21:12:44.174Z,8.42
2022-12-24T21:15:10.548Z,8.43
2022-12-24T21:17:37.183Z,8.41
2022-12-24T21:20:03.684Z,8.41
2022-12-24T21:22:29.986Z,8.39
2022-12-24T21:24:56.353Z,8.39
2022-12-24T21:27:22.665Z,8.39
2022-12-24T21:29:50.330Z,8.40
2022-12-24T21:32:16.617Z,8.39
2022-12-24T21:34:42.960Z,8.39
2022-12-24T21:37:09.290Z,8.39
2022-12-24T21:39:35.654Z,8.40
2022-12-24T21:42:01.951Z,8.39
2022-12-24T21:44:28.288Z,8.39
2022-12-24T21:46:55.950Z,8.39
2022-12-24T21:49:22.302Z,8.40
2022-12-24T21:51:48.718Z,8.40
2022-12-24T21:54:15.228Z,8.39
2022-12-24T21:56:41.663Z,8.36
2022-12-24T21:59:07.957Z,8.35
2022-12-24T22:01:34.368Z,8.36
2022-12-24T22:04:02.133Z,8.34
2022-12-24T22:06:28.667Z,8.32
2022-12-24T22:08:55.500Z,8.30
2022-12-24T22:11:21.793Z,8.27
2022-12-24T22:13:48.116Z,8.29
2022-12-24T22:16:14.474Z,8.28
2022-12-24T22:18:40.792Z,8.27
2022-12-24T22:21:08.617Z,8.24
2022-12-24T22:23:42.120Z,8.20
2022-12-24T22:26:11.847Z,8.18
2022-12-24T22:28:38.165Z,8.16
2022-12-24T22:31:04.543Z,8.14
2022-12-24T22:33:30.860Z,8.12
2022-12-24T22:35:57.179Z,8.07
2022-12-24T22:38:24.836Z,8.03
2022-12-24T22:40:51.204Z,7.98
2022-12-24T22:43:17.503Z,7.95
2022-12-24T22:45:43.860Z,7.94
2022-12-24T22:48:10.265Z,7.90
2022-12-24T22:50:39.066Z,7.86
2022-12-24T22:53:05.441Z,7.81
2022-12-24T22:55:33.112Z,7.76
2022-12-24T22:57:59.445Z,7.73
2022-12-24T23:00:39.221Z,7.69
2022-12-24T23:03:05.969Z,7.65
2022-12-24T23:05:32.463Z,7.62
2022-12-24T23:07:59.062Z,7.60
2022-12-24T23:10:25.414Z,7.57
2022-12-24T23:12:53.081Z,7.53
2022-12-24T23:15:19.436Z,7.53
2022-12-24T23:17:47.967Z,7.55
2022-12-24T23:20:14.284Z,7.60
2022-12-24T23:22:40.614Z,7.62
2022-12-24T23:25:07.252Z,7.66
2022-12-24T23:27:33.587Z,7.72
2022-12-24T23:30:01.286Z,7.76
2022-12-24T23:32:27.676Z,7.82
2022-12-24T23:34:53.996Z,7.87
2022-12-24T23:37:20.311Z,7.91
2022-12-24T23:39:46.701Z,7.95
2022-12-24T23:42:13.035Z,7.96
2022-12-24T23:44:39.452Z,7.98
2022-12-24T23:47:07.090Z,7.99
2022-12-24T23:49:33.411Z,7.98
2022-12-24T23:51:59.717Z,7.99
2022-12-24T23:54:26.661Z,8.00
2022-12-24T23:56:52.988Z,8.01
2022-12-24T23:59:19.298Z,8.04
